sensor_id;sensor_type;location;lat;lon;timestamp;pressure;altitude;pressure_sealevel;temperature;humidity
42705;BME280;28342;42.594;23.414;2023-03-15T00:01:33;93506.56;;;5.86;46.29
42705;BME280;28342;42.594;23.414;2023-03-15T00:03:58;93499.63;;;5.90;46.97
42705;BME280;28342;42.594;23.414;2023-03-15T00:06:24;93500.63;;;6.03;46.36
42705;BME280;28342;42.594;23.414;2023-03-15T00:08:50;93464.09;;;5.79;46.64
42705;BME280;28342;42.594;23.414;2023-03-15T00:11:17;93488.59;;;5.88;47.15
42705;BME280;28342;42.594;23.414;2023-03-15T00:13:43;93487.25;;;5.90;47.15
42705;BME280;28342;42.594;23.414;2023-03-15T00:16:10;93475.84;;;5.81;47.60
42705;BME280;28342;42.594;23.414;2023-03-15T00:18:36;93468.78;;;5.59;47.36
42705;BME280;28342;42.594;23.414;2023-03-15T00:21:03;93476.03;;;5.31;48.55
42705;BME280;28342;42.594;23.414;2023-03-15T00:23:30;93496.28;;;5.31;49.29
42705;BME280;28342;42.594;23.414;2023-03-15T00:25:56;93485.75;;;5.31;50.78
42705;BME280;28342;42.594;23.414;2023-03-15T00:28:22;93474.63;;;5.34;50.22
42705;BME280;28342;42.594;23.414;2023-03-15T00:30:58;93461.97;;;5.36;50.12
42705;BME280;28342;42.594;23.414;2023-03-15T00:33:26;93472.25;;;5.46;50.28
42705;BME280;28342;42.594;23.414;2023-03-15T00:35:52;93475.63;;;5.38;50.75
42705;BME280;28342;42.594;23.414;2023-03-15T00:38:18;93475.63;;;5.38;51.00
42705;BME280;28342;42.594;23.414;2023-03-15T00:40:43;93472.50;;;5.36;51.16
42705;BME280;28342;42.594;23.414;2023-03-15T00:43:10;93459.13;;;5.24;51.39
42705;BME280;28342;42.594;23.414;2023-03-15T00:45:36;93481.66;;;5.38;51.04
42705;BME280;28342;42.594;23.414;2023-03-15T00:48:02;93470.84;;;5.40;51.10
42705;BME280;28342;42.594;23.414;2023-03-15T00:50:28;93454.59;;;5.38;50.82
42705;BME280;28342;42.594;23.414;2023-03-15T00:52:54;93467.38;;;5.53;51.11
42705;BME280;28342;42.594;23.414;2023-03-15T00:55:20;93466.75;;;5.56;51.19
42705;BME280;28342;42.594;23.414;2023-03-15T00:57:46;93434.63;;;5.37;51.39
42705;BME280;28342;42.594;23.414;2023-03-15T01:00:19;93448.59;;;5.46;51.29
42705;BME280;28342;42.594;23.414;2023-03-15T01:02:50;93433.84;;;5.36;51.55
42705;BME280;28342;42.594;23.414;2023-03-15T01:05:17;93444.38;;;5.36;51.82
42705;BME280;28342;42.594;23.414;2023-03-15T01:07:43;93421.72;;;5.27;52.04
42705;BME280;28342;42.594;23.414;2023-03-15T01:10:12;93444.41;;;5.45;52.51
42705;BME280;28342;42.594;23.414;2023-03-15T01:12:39;93441.59;;;5.42;53.02
42705;BME280;28342;42.594;23.414;2023-03-15T01:15:09;93427.69;;;5.41;52.91
42705;BME280;28342;42.594;23.414;2023-03-15T01:17:37;93433.19;;;5.53;52.93
42705;BME280;28342;42.594;23.414;2023-03-15T01:20:03;93428.03;;;5.48;52.82
42705;BME280;28342;42.594;23.414;2023-03-15T01:22:30;93395.81;;;5.43;52.40
42705;BME280;28342;42.594;23.414;2023-03-15T01:24:56;93430.53;;;5.53;52.38
42705;BME280;28342;42.594;23.414;2023-03-15T01:27:22;93429.78;;;5.53;52.27
42705;BME280;28342;42.594;23.414;2023-03-15T01:29:48;93418.47;;;5.52;51.94
42705;BME280;28342;42.594;23.414;2023-03-15T01:32:14;93405.44;;;5.47;51.45
42705;BME280;28342;42.594;23.414;2023-03-15T01:34:39;93424.22;;;5.54;51.60
42705;BME280;28342;42.594;23.414;2023-03-15T01:37:05;93377.97;;;5.31;51.50
42705;BME280;28342;42.594;23.414;2023-03-15T01:39:33;93413.22;;;5.52;51.94
42705;BME280;28342;42.594;23.414;2023-03-15T01:41:59;93409.06;;;5.60;51.27
42705;BME280;28342;42.594;23.414;2023-03-15T01:44:47;93409.22;;;5.63;51.38
42705;BME280;28342;42.594;23.414;2023-03-15T01:47:12;93410.31;;;5.62;51.85
42705;BME280;28342;42.594;23.414;2023-03-15T01:49:38;93402.25;;;5.59;50.89
42705;BME280;28342;42.594;23.414;2023-03-15T01:57:11;93382.59;;;5.56;50.63
42705;BME280;28342;42.594;23.414;2023-03-15T01:59:54;93377.59;;;5.46;50.62
42705;BME280;28342;42.594;23.414;2023-03-15T02:02:24;93392.38;;;5.64;50.79
42705;BME280;28342;42.594;23.414;2023-03-15T02:04:56;93385.09;;;5.61;50.54
42705;BME280;28342;42.594;23.414;2023-03-15T02:07:28;93344.16;;;5.38;50.62
42705;BME280;28342;42.594;23.414;2023-03-15T02:10:09;93385.44;;;5.68;50.51
42705;BME280;28342;42.594;23.414;2023-03-15T02:12:41;93375.53;;;5.74;51.40
42705;BME280;28342;42.594;23.414;2023-03-15T02:15:10;93375.47;;;5.57;50.27
42705;BME280;28342;42.594;23.414;2023-03-15T02:17:39;93348.34;;;5.17;50.82
42705;BME280;28342;42.594;23.414;2023-03-15T02:20:20;93359.16;;;5.46;51.15
42705;BME280;28342;42.594;23.414;2023-03-15T02:23:00;93355.53;;;5.25;50.62
42705;BME280;28342;42.594;23.414;2023-03-15T02:25:31;93354.66;;;5.38;51.26
42705;BME280;28342;42.594;23.414;2023-03-15T02:27:59;93349.56;;;5.42;51.84
42705;BME280;28342;42.594;23.414;2023-03-15T02:30:29;93343.88;;;5.48;51.80
42705;BME280;28342;42.594;23.414;2023-03-15T02:32:55;93349.31;;;5.52;51.83
42705;BME280;28342;42.594;23.414;2023-03-15T02:35:23;93352.59;;;5.57;51.50
42705;BME280;28342;42.594;23.414;2023-03-15T02:37:49;93341.53;;;5.47;52.14
42705;BME280;28342;42.594;23.414;2023-03-15T02:40:20;93346.19;;;5.50;51.90
42705;BME280;28342;42.594;23.414;2023-03-15T02:42:47;93344.47;;;5.45;51.97
42705;BME280;28342;42.594;23.414;2023-03-15T02:45:16;93344.31;;;5.42;52.45
42705;BME280;28342;42.594;23.414;2023-03-15T02:47:45;93340.44;;;5.39;53.23
42705;BME280;28342;42.594;23.414;2023-03-15T02:50:12;93341.03;;;5.36;52.05
42705;BME280;28342;42.594;23.414;2023-03-15T02:52:38;93348.09;;;5.27;52.40
42705;BME280;28342;42.594;23.414;2023-03-15T02:55:10;93346.88;;;5.33;52.23
42705;BME280;28342;42.594;23.414;2023-03-15T02:57:36;93339.31;;;5.31;52.80
42705;BME280;28342;42.594;23.414;2023-03-15T03:00:03;93309.22;;;5.15;53.29
42705;BME280;28342;42.594;23.414;2023-03-15T03:02:41;93334.72;;;5.15;52.81
42705;BME280;28342;42.594;23.414;2023-03-15T03:05:08;93290.81;;;4.84;52.99
42705;BME280;28342;42.594;23.414;2023-03-15T03:07:34;93321.38;;;5.02;53.65
42705;BME280;28342;42.594;23.414;2023-03-15T03:10:00;93332.47;;;4.99;53.83
42705;BME280;28342;42.594;23.414;2023-03-15T03:12:29;93329.75;;;4.82;54.39
42705;BME280;28342;42.594;23.414;2023-03-15T03:14:56;93328.84;;;4.87;54.92
42705;BME280;28342;42.594;23.414;2023-03-15T03:17:42;93319.94;;;4.74;55.52
42705;BME280;28342;42.594;23.414;2023-03-15T03:20:11;93315.53;;;4.83;56.06
42705;BME280;28342;42.594;23.414;2023-03-15T03:22:39;93308.03;;;4.68;56.62
42705;BME280;28342;42.594;23.414;2023-03-15T03:25:07;93308.16;;;4.63;56.37
42705;BME280;28342;42.594;23.414;2023-03-15T03:27:35;93283.19;;;4.52;57.32
42705;BME280;28342;42.594;23.414;2023-03-15T03:30:09;93300.78;;;4.51;58.27
42705;BME280;28342;42.594;23.414;2023-03-15T03:32:40;93299.06;;;4.46;58.26
42705;BME280;28342;42.594;23.414;2023-03-15T03:35:07;93293.09;;;4.55;58.30
42705;BME280;28342;42.594;23.414;2023-03-15T03:37:34;93293.34;;;4.67;58.57
42705;BME280;28342;42.594;23.414;2023-03-15T03:40:02;93283.53;;;4.36;59.48
42705;BME280;28342;42.594;23.414;2023-03-15T03:42:35;93299.06;;;4.46;60.05
42705;BME280;28342;42.594;23.414;2023-03-15T03:45:09;93296.53;;;4.41;60.43
42705;BME280;28342;42.594;23.414;2023-03-15T03:47:38;93294.22;;;4.17;61.37
42705;BME280;28342;42.594;23.414;2023-03-15T03:50:05;93275.66;;;4.14;61.63
42705;BME280;28342;42.594;23.414;2023-03-15T03:52:31;93295.25;;;4.30;61.78
42705;BME280;28342;42.594;23.414;2023-03-15T03:55:00;93277.13;;;4.29;61.27
42705;BME280;28342;42.594;23.414;2023-03-15T03:57:33;93283.38;;;4.33;61.97
42705;BME280;28342;42.594;23.414;2023-03-15T03:59:59;93280.22;;;4.44;61.29
42705;BME280;28342;42.594;23.414;2023-03-15T04:02:54;93277.09;;;4.42;61.60
42705;BME280;28342;42.594;23.414;2023-03-15T04:05:42;93284.16;;;4.33;61.20
42705;BME280;28342;42.594;23.414;2023-03-15T04:08:35;93277.94;;;4.29;61.79
42705;BME280;28342;42.594;23.414;2023-03-15T04:11:25;93243.19;;;4.10;61.89
42705;BME280;28342;42.594;23.414;2023-03-15T04:14:01;93235.91;;;4.07;61.95
42705;BME280;28342;42.594;23.414;2023-03-15T04:17:04;93237.94;;;4.10;62.00
42705;BME280;28342;42.594;23.414;2023-03-15T04:19:37;93277.38;;;4.41;62.28
42705;BME280;28342;42.594;23.414;2023-03-15T04:22:06;93255.75;;;4.35;62.38
42705;BME280;28342;42.594;23.414;2023-03-15T04:24:42;93253.97;;;4.44;62.26
42705;BME280;28342;42.594;23.414;2023-03-15T04:27:10;93258.78;;;4.51;62.34
42705;BME280;28342;42.594;23.414;2023-03-15T04:29:42;93262.34;;;4.55;62.25
42705;BME280;28342;42.594;23.414;2023-03-15T04:32:11;93264.75;;;4.65;61.63
42705;BME280;28342;42.594;23.414;2023-03-15T04:35:22;93271.69;;;4.61;61.70
42705;BME280;28342;42.594;23.414;2023-03-15T04:37:53;93257.78;;;4.61;61.56
42705;BME280;28342;42.594;23.414;2023-03-15T04:40:55;93244.16;;;4.59;61.45
42705;BME280;28342;42.594;23.414;2023-03-15T04:43:43;93260.03;;;4.76;61.04
42705;BME280;28342;42.594;23.414;2023-03-15T04:46:17;93261.38;;;4.73;60.82
42705;BME280;28342;42.594;23.414;2023-03-15T04:48:58;93256.69;;;4.62;61.26
42705;BME280;28342;42.594;23.414;2023-03-15T04:51:25;93235.84;;;4.43;61.38
42705;BME280;28342;42.594;23.414;2023-03-15T04:54:10;93253.38;;;4.47;61.43
42705;BME280;28342;42.594;23.414;2023-03-15T04:56:53;93267.75;;;4.50;62.25
42705;BME280;28342;42.594;23.414;2023-03-15T04:59:19;93278.78;;;4.61;61.91
42705;BME280;28342;42.594;23.414;2023-03-15T05:02:10;93251.41;;;4.31;62.05
42705;BME280;28342;42.594;23.414;2023-03-15T05:04:40;93240.59;;;4.32;62.77
42705;BME280;28342;42.594;23.414;2023-03-15T05:07:26;93274.84;;;4.49;62.36
42705;BME280;28342;42.594;23.414;2023-03-15T05:10:34;93270.41;;;4.59;62.09
42705;BME280;28342;42.594;23.414;2023-03-15T05:13:17;93235.28;;;4.46;61.95
42705;BME280;28342;42.594;23.414;2023-03-15T05:16:11;93245.78;;;4.46;61.63
42705;BME280;28342;42.594;23.414;2023-03-15T05:18:37;93241.06;;;4.57;61.42
42705;BME280;28342;42.594;23.414;2023-03-15T05:21:07;93261.38;;;4.73;62.14
42705;BME280;28342;42.594;23.414;2023-03-15T05:23:41;93250.53;;;4.66;60.71
42705;BME280;28342;42.594;23.414;2023-03-15T05:26:07;93256.56;;;4.67;61.14
42705;BME280;28342;42.594;23.414;2023-03-15T05:28:32;93228.81;;;4.52;61.72
42705;BME280;28342;42.594;23.414;2023-03-15T05:30:58;93244.16;;;4.59;61.49
42705;BME280;28342;42.594;23.414;2023-03-15T05:33:29;93242.34;;;4.68;61.48
42705;BME280;28342;42.594;23.414;2023-03-15T05:35:56;93237.94;;;4.55;61.86
42705;BME280;28342;42.594;23.414;2023-03-15T05:38:22;93244.03;;;4.64;61.52
42705;BME280;28342;42.594;23.414;2023-03-15T05:40:51;93243.66;;;4.79;61.34
42705;BME280;28342;42.594;23.414;2023-03-15T05:43:16;93249.31;;;4.72;61.16
42705;BME280;28342;42.594;23.414;2023-03-15T05:45:42;93225.91;;;4.54;61.84
42705;BME280;28342;42.594;23.414;2023-03-15T05:48:09;93247.91;;;4.66;62.18
42705;BME280;28342;42.594;23.414;2023-03-15T05:50:34;93221.78;;;4.61;62.33
42705;BME280;28342;42.594;23.414;2023-03-15T05:53:00;93232.78;;;4.72;62.27
42705;BME280;28342;42.594;23.414;2023-03-15T05:55:25;93236.72;;;4.83;63.04
42705;BME280;28342;42.594;23.414;2023-03-15T05:57:51;93241.97;;;4.83;61.42
42705;BME280;28342;42.594;23.414;2023-03-15T06:00:17;93238.75;;;4.86;61.75
42705;BME280;28342;42.594;23.414;2023-03-15T06:02:44;93271.13;;;5.04;61.77
42705;BME280;28342;42.594;23.414;2023-03-15T06:05:10;93256.75;;;5.01;61.74
42705;BME280;28342;42.594;23.414;2023-03-15T06:07:35;93231.13;;;4.76;61.94
42705;BME280;28342;42.594;23.414;2023-03-15T06:10:02;93237.66;;;4.87;61.47
42705;BME280;28342;42.594;23.414;2023-03-15T06:12:27;93258.19;;;5.16;61.85
42705;BME280;28342;42.594;23.414;2023-03-15T06:14:58;93258.72;;;5.27;60.94
42705;BME280;28342;42.594;23.414;2023-03-15T06:17:23;93236.84;;;5.09;61.15
42705;BME280;28342;42.594;23.414;2023-03-15T06:23:29;93253.22;;;5.06;61.39
42705;BME280;28342;42.594;23.414;2023-03-15T06:27:19;93215.78;;;5.00;61.00
42705;BME280;28342;42.594;23.414;2023-03-15T06:31:21;93201.44;;;5.06;61.08
42705;BME280;28342;42.594;23.414;2023-03-15T06:41:48;93238.00;;;5.25;60.55
42705;BME280;28342;42.594;23.414;2023-03-15T06:51:26;93232.53;;;5.79;59.66
42705;BME280;28342;42.594;23.414;2023-03-15T06:54:21;93193.53;;;5.63;58.61
42705;BME280;28342;42.594;23.414;2023-03-15T06:57:26;93189.56;;;5.92;57.78
42705;BME280;28342;42.594;23.414;2023-03-15T07:04:05;93214.94;;;6.40;57.92
42705;BME280;28342;42.594;23.414;2023-03-15T07:06:34;93222.50;;;6.67;57.05
42705;BME280;28342;42.594;23.414;2023-03-15T07:13:09;93222.31;;;6.72;55.63
42705;BME280;28342;42.594;23.414;2023-03-15T07:16:54;93218.25;;;6.92;56.13
42705;BME280;28342;42.594;23.414;2023-03-15T07:20:03;93217.03;;;7.28;55.75
42705;BME280;28342;42.594;23.414;2023-03-15T07:22:33;93214.00;;;7.46;53.98
42705;BME280;28342;42.594;23.414;2023-03-15T07:25:00;93210.69;;;7.58;53.18
42705;BME280;28342;42.594;23.414;2023-03-15T07:27:29;93180.19;;;7.69;53.63
42705;BME280;28342;42.594;23.414;2023-03-15T07:29:55;93162.75;;;7.77;53.51
42705;BME280;28342;42.594;23.414;2023-03-15T07:32:21;93205.69;;;8.07;52.14
42705;BME280;28342;42.594;23.414;2023-03-15T07:34:47;93214.13;;;8.21;51.78
42705;BME280;28342;42.594;23.414;2023-03-15T07:37:16;93199.13;;;8.13;51.81
42705;BME280;28342;42.594;23.414;2023-03-15T07:39:42;93227.72;;;8.32;48.93
42705;BME280;28342;42.594;23.414;2023-03-15T07:42:08;93220.28;;;8.34;47.88
42705;BME280;28342;42.594;23.414;2023-03-15T07:44:35;93210.31;;;8.52;49.92
42705;BME280;28342;42.594;23.414;2023-03-15T07:47:01;93221.56;;;8.82;47.88
42705;BME280;28342;42.594;23.414;2023-03-15T07:49:27;93219.84;;;9.10;47.43
42705;BME280;28342;42.594;23.414;2023-03-15T07:51:55;93222.28;;;9.15;46.65
42705;BME280;28342;42.594;23.414;2023-03-15T07:54:22;93226.06;;;9.39;46.39
42705;BME280;28342;42.594;23.414;2023-03-15T07:56:47;93223.88;;;9.65;45.21
42705;BME280;28342;42.594;23.414;2023-03-15T07:59:13;93217.66;;;9.85;44.77
42705;BME280;28342;42.594;23.414;2023-03-15T08:01:39;93222.72;;;10.03;45.22
42705;BME280;28342;42.594;23.414;2023-03-15T08:04:05;93217.13;;;10.44;46.45
42705;BME280;28342;42.594;23.414;2023-03-15T08:06:30;93217.06;;;10.57;44.35
42705;BME280;28342;42.594;23.414;2023-03-15T08:08:55;93225.56;;;10.62;43.87
42705;BME280;28342;42.594;23.414;2023-03-15T08:11:21;93216.75;;;10.06;44.80
42705;BME280;28342;42.594;23.414;2023-03-15T08:13:46;93211.44;;;10.30;46.06
42705;BME280;28342;42.594;23.414;2023-03-15T08:16:12;93197.44;;;10.45;45.31
42705;BME280;28342;42.594;23.414;2023-03-15T08:18:37;93188.22;;;10.83;43.39
42705;BME280;28342;42.594;23.414;2023-03-15T08:21:03;93194.66;;;11.14;42.47
42705;BME280;28342;42.594;23.414;2023-03-15T08:23:28;93190.66;;;11.35;42.05
42705;BME280;28342;42.594;23.414;2023-03-15T08:25:55;93194.16;;;11.55;42.76
42705;BME280;28342;42.594;23.414;2023-03-15T08:28:20;93199.91;;;11.26;42.24
42705;BME280;28342;42.594;23.414;2023-03-15T08:30:45;93203.50;;;11.33;43.43
42705;BME280;28342;42.594;23.414;2023-03-15T08:33:11;93203.66;;;11.56;42.25
42705;BME280;28342;42.594;23.414;2023-03-15T08:35:37;93189.28;;;11.42;40.95
42705;BME280;28342;42.594;23.414;2023-03-15T08:38:02;93208.25;;;11.75;42.16
42705;BME280;28342;42.594;23.414;2023-03-15T08:40:28;93203.38;;;11.93;40.98
42705;BME280;28342;42.594;23.414;2023-03-15T08:42:55;93204.56;;;12.31;39.48
42705;BME280;28342;42.594;23.414;2023-03-15T08:45:22;93178.81;;;12.15;39.47
42705;BME280;28342;42.594;23.414;2023-03-15T08:47:48;93186.19;;;12.06;38.85
42705;BME280;28342;42.594;23.414;2023-03-15T08:50:15;93182.47;;;11.76;39.21
42705;BME280;28342;42.594;23.414;2023-03-15T08:52:41;93175.91;;;11.54;40.41
42705;BME280;28342;42.594;23.414;2023-03-15T08:55:07;93185.75;;;11.53;40.30
42705;BME280;28342;42.594;23.414;2023-03-15T08:57:33;93200.25;;;11.24;41.25
42705;BME280;28342;42.594;23.414;2023-03-15T08:59:59;93177.78;;;11.69;41.12
42705;BME280;28342;42.594;23.414;2023-03-15T09:02:26;93191.88;;;12.24;40.05
42705;BME280;28342;42.594;23.414;2023-03-15T09:04:51;93181.31;;;12.47;40.13
42705;BME280;28342;42.594;23.414;2023-03-15T09:07:17;93190.56;;;12.34;39.94
42705;BME280;28342;42.594;23.414;2023-03-15T09:09:42;93190.97;;;12.55;39.50
42705;BME280;28342;42.594;23.414;2023-03-15T09:12:13;93195.66;;;12.62;39.19
42705;BME280;28342;42.594;23.414;2023-03-15T09:14:39;93197.69;;;12.10;38.76
42705;BME280;28342;42.594;23.414;2023-03-15T09:17:04;93206.38;;;11.76;39.98
42705;BME280;28342;42.594;23.414;2023-03-15T09:19:29;93174.63;;;11.32;40.31
42705;BME280;28342;42.594;23.414;2023-03-15T09:21:56;93199.97;;;11.45;41.17
42705;BME280;28342;42.594;23.414;2023-03-15T09:24:22;93196.47;;;11.25;40.82
42705;BME280;28342;42.594;23.414;2023-03-15T09:26:47;93198.00;;;11.26;41.40
42705;BME280;28342;42.594;23.414;2023-03-15T09:29:12;93197.25;;;11.26;42.70
42705;BME280;28342;42.594;23.414;2023-03-15T09:31:38;93202.56;;;11.42;42.81
42705;BME280;28342;42.594;23.414;2023-03-15T09:34:03;93200.66;;;11.42;42.75
42705;BME280;28342;42.594;23.414;2023-03-15T09:36:30;93188.75;;;11.83;42.39
42705;BME280;28342;42.594;23.414;2023-03-15T09:38:56;93163.84;;;12.26;41.45
42705;BME280;28342;42.594;23.414;2023-03-15T09:41:56;93186.00;;;12.73;41.46
42705;BME280;28342;42.594;23.414;2023-03-15T09:47:40;93170.81;;;12.35;40.57
42705;BME280;28342;42.594;23.414;2023-03-15T09:50:35;93170.69;;;12.27;41.03
42705;BME280;28342;42.594;23.414;2023-03-15T09:53:09;93168.28;;;12.22;41.82
42705;BME280;28342;42.594;23.414;2023-03-15T09:55:38;93150.38;;;12.19;41.10
42705;BME280;28342;42.594;23.414;2023-03-15T09:58:24;93163.84;;;12.26;41.15
42705;BME280;28342;42.594;23.414;2023-03-15T10:00:59;93164.03;;;12.37;41.43
42705;BME280;28342;42.594;23.414;2023-03-15T10:06:19;93144.13;;;12.27;42.29
42705;BME280;28342;42.594;23.414;2023-03-15T10:08:49;93158.09;;;12.44;40.49
42705;BME280;28342;42.594;23.414;2023-03-15T10:11:33;93173.47;;;12.54;41.72
42705;BME280;28342;42.594;23.414;2023-03-15T10:16:42;93154.16;;;12.38;40.02
42705;BME280;28342;42.594;23.414;2023-03-15T10:22:00;93147.91;;;12.69;41.91
42705;BME280;28342;42.594;23.414;2023-03-15T10:24:34;93157.56;;;12.77;41.75
42705;BME280;28342;42.594;23.414;2023-03-15T10:29:55;93155.34;;;12.60;40.27
42705;BME280;28342;42.594;23.414;2023-03-15T10:32:26;93145.66;;;12.29;42.06
42705;BME280;28342;42.594;23.414;2023-03-15T10:34:55;93154.47;;;12.13;42.13
42705;BME280;28342;42.594;23.414;2023-03-15T10:37:23;93135.97;;;12.01;42.25
42705;BME280;28342;42.594;23.414;2023-03-15T10:39:54;93155.56;;;12.32;40.39
42705;BME280;28342;42.594;23.414;2023-03-15T10:42:31;93155.97;;;12.53;40.37
42705;BME280;28342;42.594;23.414;2023-03-15T10:45:11;93155.16;;;12.49;41.20
42705;BME280;28342;42.594;23.414;2023-03-15T10:47:42;93139.34;;;12.17;41.34
42705;BME280;28342;42.594;23.414;2023-03-15T10:50:12;93148.00;;;12.34;40.81
42705;BME280;28342;42.594;23.414;2023-03-15T10:52:42;93147.53;;;12.47;39.32
42705;BME280;28342;42.594;23.414;2023-03-15T10:57:38;93152.56;;;12.72;40.04
42705;BME280;28342;42.594;23.414;2023-03-15T11:00:34;93158.09;;;12.44;40.14
42705;BME280;28342;42.594;23.414;2023-03-15T11:03:05;93129.69;;;12.09;40.25
42705;BME280;28342;42.594;23.414;2023-03-15T11:05:52;93143.69;;;12.25;41.35
42705;BME280;28342;42.594;23.414;2023-03-15T11:08:20;93130.78;;;11.89;41.65
42705;BME280;28342;42.594;23.414;2023-03-15T11:10:53;93133.75;;;12.03;40.07
42705;BME280;28342;42.594;23.414;2023-03-15T11:13:31;93147.53;;;12.47;41.24
42705;BME280;28342;42.594;23.414;2023-03-15T11:19:16;93143.53;;;12.38;40.59
42705;BME280;28342;42.594;23.414;2023-03-15T11:21:44;93142.75;;;12.37;41.35
42705;BME280;28342;42.594;23.414;2023-03-15T11:24:28;93141.28;;;12.40;39.55
42705;BME280;28342;42.594;23.414;2023-03-15T11:26:57;93136.50;;;12.26;39.70
42705;BME280;28342;42.594;23.414;2023-03-15T11:29:36;93139.25;;;12.52;41.59
42705;BME280;28342;42.594;23.414;2023-03-15T11:32:33;93138.22;;;12.38;41.69
42705;BME280;28342;42.594;23.414;2023-03-15T11:35:03;93136.13;;;12.47;41.11
42705;BME280;28342;42.594;23.414;2023-03-15T11:37:38;93139.78;;;12.81;39.70
42705;BME280;28342;42.594;23.414;2023-03-15T11:46:00;93129.78;;;12.74;40.69
42705;BME280;28342;42.594;23.414;2023-03-15T11:49:03;93137.66;;;12.90;40.06
42705;BME280;28342;42.594;23.414;2023-03-15T11:51:34;93132.94;;;13.03;40.63
42705;BME280;28342;42.594;23.414;2023-03-15T11:54:11;93130.38;;;13.10;39.14
42705;BME280;28342;42.594;23.414;2023-03-15T11:56:53;93140.97;;;13.06;40.46
42705;BME280;28342;42.594;23.414;2023-03-15T11:59:31;93125.84;;;12.68;40.83
42705;BME280;28342;42.594;23.414;2023-03-15T12:04:57;93128.13;;;13.12;39.85
42705;BME280;28342;42.594;23.414;2023-03-15T12:07:34;93105.06;;;12.97;39.73
42705;BME280;28342;42.594;23.414;2023-03-15T12:17:49;93089.22;;;12.58;41.43
42705;BME280;28342;42.594;23.414;2023-03-15T12:20:16;93106.91;;;12.93;40.65
42705;BME280;28342;42.594;23.414;2023-03-15T12:25:42;93110.84;;;12.79;38.72
42705;BME280;28342;42.594;23.414;2023-03-15T12:28:20;93078.03;;;12.49;41.24
42705;BME280;28342;42.594;23.414;2023-03-15T12:30:53;93090.16;;;12.69;40.34
42705;BME280;28342;42.594;23.414;2023-03-15T12:33:21;93093.38;;;12.78;40.80
42705;BME280;28342;42.594;23.414;2023-03-15T12:35:51;93093.00;;;12.57;40.12
42705;BME280;28342;42.594;23.414;2023-03-15T12:38:23;93088.66;;;12.49;39.91
42705;BME280;28342;42.594;23.414;2023-03-15T12:43:35;93096.59;;;12.45;40.55
42705;BME280;28342;42.594;23.414;2023-03-15T12:46:00;93082.78;;;12.40;38.56
42705;BME280;28342;42.594;23.414;2023-03-15T12:48:27;93091.31;;;12.49;39.89
42705;BME280;28342;42.594;23.414;2023-03-15T12:50:55;93099.25;;;12.68;40.97
42705;BME280;28342;42.594;23.414;2023-03-15T12:55:50;93090.13;;;12.89;39.87
42705;BME280;28342;42.594;23.414;2023-03-15T12:58:18;93068.03;;;12.65;40.82
42705;BME280;28342;42.594;23.414;2023-03-15T13:00:45;93089.34;;;12.65;41.19
42705;BME280;28342;42.594;23.414;2023-03-15T13:03:15;93084.63;;;12.36;40.65
42705;BME280;28342;42.594;23.414;2023-03-15T13:08:48;93083.66;;;12.44;41.77
42705;BME280;28342;42.594;23.414;2023-03-15T13:16:48;93086.97;;;12.83;40.46
42705;BME280;28342;42.594;23.414;2023-03-15T13:19:31;93091.34;;;12.95;41.38
42705;BME280;28342;42.594;23.414;2023-03-15T13:24:38;93104.72;;;12.75;41.71
42705;BME280;28342;42.594;23.414;2023-03-15T13:29:33;93085.59;;;12.70;39.77
42705;BME280;28342;42.594;23.414;2023-03-15T13:32:20;93090.47;;;12.87;39.99
42705;BME280;28342;42.594;23.414;2023-03-15T13:34:47;93081.91;;;12.74;41.21
42705;BME280;28342;42.594;23.414;2023-03-15T13:37:22;93093.28;;;12.98;40.58
42705;BME280;28342;42.594;23.414;2023-03-15T13:40:07;93079.34;;;13.04;40.76
42705;BME280;28342;42.594;23.414;2023-03-15T13:42:38;93070.00;;;12.91;41.01
42705;BME280;28342;42.594;23.414;2023-03-15T13:47:30;93089.03;;;13.39;39.90
42705;BME280;28342;42.594;23.414;2023-03-15T13:49:56;93089.53;;;13.22;39.17
42705;BME280;28342;42.594;23.414;2023-03-15T13:52:21;93095.56;;;12.53;38.54
42705;BME280;28342;42.594;23.414;2023-03-15T13:54:47;93097.88;;;12.74;40.19
42705;BME280;28342;42.594;23.414;2023-03-15T13:57:20;93098.38;;;12.83;39.97
42705;BME280;28342;42.594;23.414;2023-03-15T13:59:51;93076.88;;;12.92;39.27
42705;BME280;28342;42.594;23.414;2023-03-15T14:02:23;93097.72;;;13.13;39.43
42705;BME280;28342;42.594;23.414;2023-03-15T14:04:52;93083.22;;;13.10;39.42
42705;BME280;28342;42.594;23.414;2023-03-15T14:07:25;93091.28;;;13.14;41.15
42705;BME280;28342;42.594;23.414;2023-03-15T14:10:21;93091.41;;;12.98;40.51
42705;BME280;28342;42.594;23.414;2023-03-15T14:12:48;93091.75;;;12.97;39.53
42705;BME280;28342;42.594;23.414;2023-03-15T14:15:17;93082.13;;;12.89;38.53
42705;BME280;28342;42.594;23.414;2023-03-15T14:18:10;93095.06;;;13.13;39.70
42705;BME280;28342;42.594;23.414;2023-03-15T14:20:41;93100.13;;;13.18;40.25
42705;BME280;28342;42.594;23.414;2023-03-15T14:23:15;93096.81;;;13.02;40.11
42705;BME280;28342;42.594;23.414;2023-03-15T14:25:42;93087.94;;;12.71;40.83
42705;BME280;28342;42.594;23.414;2023-03-15T14:28:14;93093.41;;;12.82;40.27
42705;BME280;28342;42.594;23.414;2023-03-15T14:30:41;93083.25;;;12.88;40.78
42705;BME280;28342;42.594;23.414;2023-03-15T14:33:38;93067.53;;;12.79;38.74
42705;BME280;28342;42.594;23.414;2023-03-15T14:36:21;93072.19;;;12.85;38.91
42705;BME280;28342;42.594;23.414;2023-03-15T14:38:52;93078.22;;;13.05;39.67
42705;BME280;28342;42.594;23.414;2023-03-15T14:43:55;93083.50;;;13.02;40.26
42705;BME280;28342;42.594;23.414;2023-03-15T14:46:21;93068.63;;;13.01;40.82
42705;BME280;28342;42.594;23.414;2023-03-15T14:48:48;93079.81;;;13.10;39.01
42705;BME280;28342;42.594;23.414;2023-03-15T14:51:16;93078.03;;;12.95;39.79
42705;BME280;28342;42.594;23.414;2023-03-15T14:53:43;93078.69;;;13.11;40.19
42705;BME280;28342;42.594;23.414;2023-03-15T14:56:13;93084.72;;;13.08;41.11